Time;durP1;ratioP1;P1;durP2;ratioP2;P2;SDS_P1;SDS_P2;PMS_P1;PMS_P2;Temp;Humidity;BMP_temperature;BMP_pressure;BME280_temperature;BME280_humidity;BME280_pressure;Samples;Min_cycle;Max_cycle;Signal;HPM_P1;HPM_P2
2023/10/04 00:00:59;;;;;;;12.60;8.20;;;;;;;24.23;34.24;101498.50;102869;1294;63251;-80
2023/10/04 00:03:28;;;;;;;14.20;7.90;;;;;;;24.23;34.22;101492.60;102940;1295;72126;-79
2023/10/04 00:05:54;;;;;;;12.80;7.50;;;;;;;24.22;34.28;101490.64;102849;1291;75220;-80
2023/10/04 00:08:20;;;;;;;13.60;7.50;;;;;;;24.22;34.22;101489.40;102825;1297;62714;-81
2023/10/04 00:10:46;;;;;;;12.30;7.60;;;;;;;24.22;34.20;101490.45;102919;1294;62257;-79
2023/10/04 00:13:13;;;;;;;13.20;7.40;;;;;;;24.22;34.18;101489.40;102836;1297;62210;-79
2023/10/04 00:15:39;;;;;;;12.20;7.80;;;;;;;24.22;34.18;101488.14;102919;1294;62270;-80
2023/10/04 00:18:06;;;;;;;11.90;7.30;;;;;;;24.22;34.24;101485.64;103004;1294;62215;-79
2023/10/04 00:20:33;;;;;;;10.50;6.80;;;;;;;24.22;34.21;101485.45;102894;1294;62185;-80
2023/10/04 00:23:00;;;;;;;14.00;7.80;;;;;;;24.22;34.22;101483.66;102807;1297;62157;-80
2023/10/04 00:25:25;;;;;;;14.90;7.40;;;;;;;24.22;34.24;101482.39;102931;1295;62292;-80
2023/10/04 00:27:56;;;;;;;11.00;7.10;;;;;;;24.22;34.23;101478.97;102843;1292;62319;-80
2023/10/04 00:30:22;;;;;;;12.30;7.10;;;;;;;24.22;34.23;101478.29;102927;1293;62282;-80
2023/10/04 00:32:48;;;;;;;12.10;6.80;;;;;;;24.22;34.17;101476.33;102950;1294;72437;-79
2023/10/04 00:35:17;;;;;;;14.30;7.40;;;;;;;24.22;34.24;101477.24;102972;1294;62231;-79
2023/10/04 00:37:46;;;;;;;10.90;7.00;;;;;;;24.21;34.15;101475.06;102911;1293;62104;-81
2023/10/04 00:40:15;;;;;;;13.00;7.60;;;;;;;24.21;34.19;101475.23;102876;1294;62205;-80
2023/10/04 00:42:41;;;;;;;9.60;6.50;;;;;;;24.21;34.20;101474.02;102967;1294;72847;-81
2023/10/04 00:45:12;;;;;;;13.30;6.90;;;;;;;24.21;34.23;101473.30;102944;1297;62247;-80
2023/10/04 00:47:41;;;;;;;11.30;7.50;;;;;;;24.20;34.24;101470.45;102902;1292;62204;-79
2023/10/04 00:50:16;;;;;;;14.00;7.30;;;;;;;24.21;34.16;101469.36;102937;1293;62122;-80
2023/10/04 00:52:47;;;;;;;12.00;6.90;;;;;;;24.21;34.14;101464.88;102890;1293;72320;-80
2023/10/04 00:55:19;;;;;;;10.60;7.00;;;;;;;24.20;34.17;101465.43;102842;1294;77217;-80
2023/10/04 00:57:48;;;;;;;13.30;7.10;;;;;;;24.21;34.13;101466.13;102947;1294;62274;-83
2023/10/04 01:00:14;;;;;;;;;;;;;;;24.21;34.19;101463.98;102928;1297;62198;-81
2023/10/04 01:02:39;;;;;;;10.70;6.30;;;;;;;24.18;34.13;101462.59;102913;1296;62199;-79
2023/10/04 01:05:06;;;;;;;9.50;6.20;;;;;;;24.18;34.23;101460.38;102856;1295;62645;-79
2023/10/04 01:07:32;;;;;;;10.90;6.40;;;;;;;24.18;34.19;101462.35;102928;1294;62269;-81
2023/10/04 01:09:58;;;;;;;11.70;6.80;;;;;;;24.19;34.23;101460.67;102832;1294;62165;-81
2023/10/04 01:12:24;;;;;;;10.10;6.40;;;;;;;24.19;34.17;101461.38;102999;1297;62354;-80
2023/10/04 01:14:53;;;;;;;12.90;7.20;;;;;;;24.20;34.18;101464.59;102927;1294;63442;-80
2023/10/04 01:17:19;;;;;;;11.20;6.90;;;;;;;24.19;34.16;101457.27;103065;1295;62115;-80
2023/10/04 01:19:45;;;;;;;11.70;6.60;;;;;;;24.19;34.20;101456.76;103032;1293;62205;-80
2023/10/04 01:22:11;;;;;;;14.50;6.90;;;;;;;24.19;34.20;101455.66;102824;1294;62283;-79
2023/10/04 01:24:41;;;;;;;14.00;6.80;;;;;;;24.19;34.25;101452.58;102940;1292;63367;-79
2023/10/04 01:27:08;;;;;;;9.50;6.40;;;;;;;24.20;34.18;101455.05;102983;1294;62214;-78
2023/10/04 01:29:57;;;;;;;11.30;7.10;;;;;;;24.19;34.16;101455.81;102857;1293;62242;-79
2023/10/04 01:32:23;;;;;;;10.60;6.80;;;;;;;24.19;34.17;101456.02;102450;1300;72270;-81
2023/10/04 01:34:49;;;;;;;11.40;6.90;;;;;;;24.19;34.23;101455.85;102438;1297;62301;-79
2023/10/04 01:37:14;;;;;;;11.30;6.90;;;;;;;24.19;34.15;101457.80;102481;1297;62205;-79
2023/10/04 01:39:42;;;;;;;13.10;7.00;;;;;;;24.19;34.08;101454.01;102464;1297;62414;-80
2023/10/04 01:42:08;;;;;;;13.50;7.70;;;;;;;24.19;34.17;101452.59;102488;1297;63397;-79
2023/10/04 01:44:34;;;;;;;12.10;7.20;;;;;;;24.19;34.13;101454.92;102433;1300;62151;-80
2023/10/04 01:47:02;;;;;;;12.40;6.90;;;;;;;24.19;34.14;101452.95;102502;1297;62347;-79
2023/10/04 01:49:27;;;;;;;13.20;7.50;;;;;;;24.19;34.19;101452.98;102530;1298;63383;-80
2023/10/04 01:51:53;;;;;;;13.00;7.30;;;;;;;24.19;34.15;101452.08;102454;1298;63000;-80
2023/10/04 01:54:18;;;;;;;12.50;7.50;;;;;;;24.19;34.15;101446.29;102467;1297;63341;-80
2023/10/04 01:56:44;;;;;;;11.90;7.40;;;;;;;24.19;34.10;101446.52;102523;1297;62275;-80
2023/10/04 01:59:13;;;;;;;12.40;6.70;;;;;;;24.19;34.16;101446.52;102399;1297;62300;-81
2023/10/04 02:01:40;;;;;;;12.40;7.00;;;;;;;24.18;34.14;101439.87;102468;1297;62260;-81
2023/10/04 02:04:06;;;;;;;13.30;7.30;;;;;;;24.18;34.22;101441.68;102370;1297;72565;-79
2023/10/04 02:06:33;;;;;;;12.40;6.90;;;;;;;24.18;34.19;101444.73;102315;1299;62317;-79
2023/10/04 02:09:00;;;;;;;12.20;7.20;;;;;;;24.18;34.06;101445.81;102467;1294;63338;-79
2023/10/04 02:11:26;;;;;;;11.20;7.10;;;;;;;24.18;34.17;101448.18;102893;1294;62125;-80
2023/10/04 02:13:52;;;;;;;10.60;7.00;;;;;;;24.18;34.17;101447.83;102953;1294;62234;-80
2023/10/04 02:16:23;;;;;;;11.50;7.50;;;;;;;24.18;34.15;101449.27;102889;1293;62205;-80
2023/10/04 02:18:49;;;;;;;11.40;7.30;;;;;;;24.18;34.16;101452.11;102885;1296;62109;-81
2023/10/04 02:21:17;;;;;;;13.40;7.00;;;;;;;24.18;34.17;101451.43;102830;1294;62048;-81
2023/10/04 02:23:42;;;;;;;13.40;7.30;;;;;;;24.18;34.16;101451.80;102898;1297;72277;-79
2023/10/04 02:26:08;;;;;;;11.60;6.90;;;;;;;24.18;34.06;101454.14;102907;1294;62206;-79
2023/10/04 02:28:34;;;;;;;12.30;7.20;;;;;;;24.17;34.15;101447.52;102960;1294;63163;-79
2023/10/04 02:31:02;;;;;;;13.90;7.00;;;;;;;24.17;34.14;101445.91;102917;1295;63165;-80
2023/10/04 02:33:33;;;;;;;14.10;8.00;;;;;;;24.17;34.15;101440.86;102912;1294;62289;-79
2023/10/04 02:36:00;;;;;;;14.00;7.70;;;;;;;24.17;34.18;101442.65;102878;1292;75159;-79
2023/10/04 02:38:27;;;;;;;13.90;7.20;;;;;;;24.17;34.12;101436.05;102935;1294;62205;-80
2023/10/04 02:40:55;;;;;;;12.50;7.10;;;;;;;24.16;34.15;101440.55;102897;1294;62203;-79
2023/10/04 02:43:23;;;;;;;16.70;7.30;;;;;;;24.17;34.11;101441.25;102938;1296;72627;-81
2023/10/04 02:45:49;;;;;;;11.40;6.20;;;;;;;24.16;34.16;101440.73;102921;1295;75062;-80
2023/10/04 02:48:16;;;;;;;12.10;7.20;;;;;;;24.17;34.13;101445.93;102946;1294;62234;-80
2023/10/04 02:50:43;;;;;;;10.30;7.00;;;;;;;24.17;34.08;101441.82;102905;1294;62110;-80
2023/10/04 02:53:12;;;;;;;10.70;6.90;;;;;;;24.16;34.14;101443.99;102911;1292;72329;-80
2023/10/04 02:55:38;;;;;;;11.30;6.40;;;;;;;24.16;34.14;101441.10;102843;1292;75259;-80
2023/10/04 02:58:07;;;;;;;11.60;7.00;;;;;;;24.16;34.12;101440.24;102861;1295;62205;-80
2023/10/04 03:00:36;;;;;;;12.40;7.10;;;;;;;24.16;34.10;101438.80;102778;1294;62183;-80
2023/10/04 03:03:19;;;;;;;11.00;6.70;;;;;;;24.20;34.09;101431.64;103079;1288;601420;-80
2023/10/04 03:05:45;;;;;;;11.60;7.00;;;;;;;24.17;34.07;101431.52;103128;1293;71051;-80
2023/10/04 03:08:17;;;;;;;12.50;6.80;;;;;;;24.17;34.13;101430.10;103257;1291;59781;-80
2023/10/04 03:10:45;;;;;;;13.20;7.00;;;;;;;24.17;34.04;101428.85;103124;1294;59982;-80
2023/10/04 03:13:12;;;;;;;12.10;7.20;;;;;;;24.17;34.04;101430.66;103272;1288;72514;-81
2023/10/04 03:15:38;;;;;;;13.00;7.20;;;;;;;24.17;34.05;101431.73;102920;1288;298612;-81
2023/10/04 03:18:13;;;;;;;13.20;7.00;;;;;;;24.16;34.03;101431.56;103384;1288;59272;-80
2023/10/04 03:20:54;;;;;;;12.70;7.00;;;;;;;24.16;34.03;101428.17;103533;1290;60172;-80
2023/10/04 03:23:21;;;;;;;13.20;7.10;;;;;;;24.15;34.00;101426.61;103385;1291;72457;-79
2023/10/04 03:25:47;;;;;;;14.50;7.10;;;;;;;24.15;33.99;101427.20;103473;1289;72017;-81
2023/10/04 03:28:14;;;;;;;13.20;7.40;;;;;;;24.14;33.94;101431.39;103476;1289;59957;-79
2023/10/04 03:30:44;;;;;;;15.10;7.00;;;;;;;24.12;33.93;101431.54;103240;1288;59879;-80
2023/10/04 03:33:10;;;;;;;14.30;6.80;;;;;;;24.10;33.86;101436.14;103449;1291;63810;-79
2023/10/04 03:35:39;;;;;;;14.50;6.90;;;;;;;24.08;33.78;101433.81;103419;1286;59681;-79
2023/10/04 03:38:06;;;;;;;15.00;7.10;;;;;;;24.04;33.66;101437.50;103391;1287;60824;-80
2023/10/04 03:40:35;;;;;;;15.00;7.70;;;;;;;24.01;33.66;101434.52;103396;1288;59956;-80
2023/10/04 03:43:05;;;;;;;15.30;7.30;;;;;;;23.97;33.47;101431.20;103364;1286;72301;-80
2023/10/04 03:45:34;;;;;;;14.00;7.60;;;;;;;23.93;33.50;101430.41;103422;1290;73157;-80
2023/10/04 03:48:01;;;;;;;13.40;7.30;;;;;;;23.90;33.36;101427.95;103483;1286;60993;-78
2023/10/04 03:50:28;;;;;;;17.40;7.90;;;;;;;23.87;33.36;101428.66;103391;1290;59770;-79
2023/10/04 03:52:57;;;;;;;16.50;7.80;;;;;;;23.83;33.26;101427.11;103363;1293;59837;-79
2023/10/04 03:55:26;;;;;;;16.40;8.00;;;;;;;23.81;33.09;101427.15;103399;1292;73319;-79
2023/10/04 03:57:54;;;;;;;14.50;7.40;;;;;;;23.78;33.07;101428.44;103443;1293;59996;-80
2023/10/04 04:00:21;;;;;;;18.70;7.90;;;;;;;23.75;33.05;101432.39;103366;1289;60287;-81
2023/10/04 04:02:49;;;;;;;11.50;7.30;;;;;;;23.73;32.99;101431.44;103194;1287;72618;-80
2023/10/04 04:05:15;;;;;;;17.00;7.50;;;;;;;23.72;33.02;101435.66;103378;1292;72657;-79
2023/10/04 04:07:41;;;;;;;16.60;7.70;;;;;;;23.71;33.07;101432.86;103352;1294;59790;-80
2023/10/04 04:10:08;;;;;;;15.60;8.20;;;;;;;23.71;33.09;101430.94;103617;1293;59859;-79
2023/10/04 04:12:35;;;;;;;20.40;8.90;;;;;;;23.69;33.11;101427.08;103547;1290;59667;-81
2023/10/04 04:15:03;;;;;;;19.90;8.60;;;;;;;23.68;32.95;101422.33;103518;1292;72811;-80
2023/10/04 04:17:29;;;;;;;20.50;9.40;;;;;;;23.67;32.97;101422.04;103353;1292;60309;-80
2023/10/04 04:19:55;;;;;;;17.80;8.80;;;;;;;23.66;32.94;101425.67;103365;1294;59657;-82
2023/10/04 04:22:24;;;;;;;21.10;9.20;;;;;;;23.65;32.87;101426.29;103297;1292;59872;-80
2023/10/04 04:24:50;;;;;;;19.30;8.80;;;;;;;23.64;32.91;101424.04;103494;1289;72828;-79
2023/10/04 04:27:22;;;;;;;20.90;9.50;;;;;;;23.63;32.80;101422.13;103337;1290;59666;-79
2023/10/04 04:29:54;;;;;;;26.80;11.00;;;;;;;23.61;32.74;101423.89;103729;1289;60120;-80
2023/10/04 04:32:26;;;;;;;22.10;10.50;;;;;;;23.61;32.75;101425.18;103613;1293;71463;-78
2023/10/04 04:34:54;;;;;;;23.90;10.80;;;;;;;23.59;32.67;101424.95;103690;1289;72752;-77
2023/10/04 04:37:23;;;;;;;19.70;9.20;;;;;;;23.58;32.68;101428.58;104073;1292;60118;-79
2023/10/04 04:39:51;;;;;;;18.80;8.60;;;;;;;23.57;32.65;101427.39;103735;1288;60102;-79
2023/10/04 04:42:22;;;;;;;21.90;8.70;;;;;;;23.58;32.73;101425.16;103979;1289;72507;-80
2023/10/04 04:44:48;;;;;;;18.90;7.80;;;;;;;23.60;32.73;101426.32;103753;1292;72608;-79
2023/10/04 04:47:17;;;;;;;20.50;7.50;;;;;;;23.60;32.79;101427.35;103773;1292;60241;-79
2023/10/04 04:49:43;;;;;;;27.30;9.60;;;;;;;23.62;32.85;101425.84;103909;1294;60086;-81
2023/10/04 04:52:09;;;;;;;33.40;11.60;;;;;;;23.60;32.93;101428.13;104087;1292;72404;-80
2023/10/04 04:54:36;;;;;;;34.50;12.70;;;;;;;23.57;32.97;101428.16;104300;1289;72873;-81
2023/10/04 04:57:02;;;;;;;26.50;12.30;;;;;;;23.52;33.05;101431.75;104595;1288;61032;-83
2023/10/04 04:59:28;;;;;;;32.00;11.40;;;;;;;23.49;33.06;101432.14;104597;1290;59288;-82
2023/10/04 05:01:55;;;;;;;29.10;11.50;;;;;;;23.47;33.09;101433.16;104578;1288;59435;-80
2023/10/04 05:04:22;;;;;;;33.30;11.90;;;;;;;23.47;33.26;101433.52;104966;1288;59702;-81
2023/10/04 05:06:49;;;;;;;26.10;11.40;;;;;;;23.49;33.33;101439.85;104875;1289;61426;-82
2023/10/04 05:09:17;;;;;;;28.10;12.20;;;;;;;23.52;33.39;101439.65;104638;1290;59713;-81
2023/10/04 05:11:44;;;;;;;24.00;10.50;;;;;;;23.54;33.46;101443.45;104444;1289;72248;-81
2023/10/04 05:14:11;;;;;;;22.20;10.40;;;;;;;23.56;33.48;101447.08;104394;1291;73767;-79
2023/10/04 05:16:37;;;;;;;23.10;10.20;;;;;;;23.58;33.58;101447.45;104467;1288;60315;-80
2023/10/04 05:19:10;;;;;;;23.40;10.30;;;;;;;23.60;33.64;101451.66;103989;1294;59552;-79
2023/10/04 05:21:36;;;;;;;23.90;9.50;;;;;;;23.61;33.57;101452.09;104740;1289;72282;-81
2023/10/04 05:24:04;;;;;;;27.50;9.70;;;;;;;23.61;33.61;101455.67;104640;1286;59647;-80
2023/10/04 05:26:29;;;;;;;19.80;9.60;;;;;;;23.61;33.54;101455.88;104331;1288;60136;-81
2023/10/04 05:28:55;;;;;;;25.80;10.00;;;;;;;23.61;33.44;101458.93;104367;1292;59720;-80
2023/10/04 05:31:22;;;;;;;25.60;10.20;;;;;;;23.60;33.39;101466.34;104166;1291;60747;-81
2023/10/04 05:33:47;;;;;;;27.30;10.10;;;;;;;23.60;33.29;101468.00;104781;1287;59769;-81
2023/10/04 05:36:14;;;;;;;19.10;9.40;;;;;;;23.59;33.25;101470.77;104662;1289;59704;-81
2023/10/04 05:38:40;;;;;;;21.80;9.70;;;;;;;23.60;33.11;101472.14;104419;1288;58041;-80
2023/10/04 05:41:09;;;;;;;21.70;9.20;;;;;;;23.60;33.03;101478.06;104418;1288;59739;-80
2023/10/04 05:43:35;;;;;;;19.40;8.90;;;;;;;23.58;33.13;101473.11;106137;1287;72542;-79
2023/10/04 05:46:00;;;;;;;22.40;9.00;;;;;;;23.58;33.04;101470.29;106258;1287;57378;-80
2023/10/04 05:48:26;;;;;;;20.00;9.40;;;;;;;23.57;33.10;101467.46;106203;1288;57302;-80
2023/10/04 05:50:54;;;;;;;21.00;8.70;;;;;;;23.56;33.06;101469.52;106172;1288;58262;-81
2023/10/04 05:53:20;;;;;;;25.50;10.10;;;;;;;23.54;32.95;101470.59;106101;1287;58422;-80
2023/10/04 05:55:45;;;;;;;22.20;8.50;;;;;;;23.43;32.95;101477.23;106200;1288;58001;-81
2023/10/04 05:58:11;;;;;;;21.30;8.80;;;;;;;23.41;33.08;101477.44;106031;1292;57917;-81
2023/10/04 06:00:46;;;;;;;26.80;8.70;;;;;;;23.42;33.19;101481.48;106115;1287;57530;-82
2023/10/04 06:03:12;;;;;;;24.70;8.20;;;;;;;23.42;33.27;101480.20;106114;1288;72923;-80
2023/10/04 06:05:39;;;;;;;26.60;9.10;;;;;;;23.41;33.38;101478.09;106171;1288;57496;-81
2023/10/04 06:08:21;;;;;;;20.30;8.60;;;;;;;23.42;33.29;101478.41;106087;1288;58162;-80
2023/10/04 06:10:48;;;;;;;18.50;8.20;;;;;;;23.43;33.34;101478.17;105641;1288;72454;-81
2023/10/04 06:13:13;;;;;;;21.00;8.80;;;;;;;23.45;33.42;101474.63;106186;1288;72799;-80
2023/10/04 06:15:44;;;;;;;21.10;8.50;;;;;;;23.47;33.45;101475.55;104751;1288;60597;-80
2023/10/04 06:18:11;;;;;;;19.50;8.50;;;;;;;23.48;33.52;101476.40;104422;1288;60198;-80
2023/10/04 06:20:38;;;;;;;19.90;8.40;;;;;;;23.49;33.47;101478.48;104896;1287;72826;-79
2023/10/04 06:23:05;;;;;;;20.20;8.60;;;;;;;23.50;33.42;101477.52;104898;1293;59485;-81
2023/10/04 06:25:35;;;;;;;18.10;8.50;;;;;;;23.50;33.44;101475.70;104769;1288;60320;-80
2023/10/04 06:28:02;;;;;;;20.90;8.40;;;;;;;23.50;33.37;101475.92;104696;1288;59894;-81
2023/10/04 06:30:31;;;;;;;19.50;8.00;;;;;;;23.49;33.26;101478.61;106283;1288;72488;-82
2023/10/04 06:32:57;;;;;;;15.10;8.00;;;;;;;23.50;33.34;101479.09;106265;1287;71599;-80
2023/10/04 06:35:24;;;;;;;19.40;7.90;;;;;;;23.50;33.31;101480.59;106326;1286;59916;-80
2023/10/04 06:37:50;;;;;;;16.10;8.40;;;;;;;23.50;33.25;101480.74;104715;1288;59565;-78
2023/10/04 06:40:19;;;;;;;17.50;8.20;;;;;;;23.51;33.26;101483.58;104624;1288;72583;-81
2023/10/04 06:42:55;;;;;;;16.60;8.10;;;;;;;23.51;33.25;101481.94;104900;1288;72839;-80
2023/10/04 06:45:22;;;;;;;22.80;8.40;;;;;;;23.51;33.26;101483.55;104774;1288;59907;-80
2023/10/04 06:47:49;;;;;;;20.70;8.30;;;;;;;23.51;33.23;101485.88;106289;1287;60186;-80
2023/10/04 06:50:18;;;;;;;20.10;8.30;;;;;;;23.52;33.28;101488.52;106224;1287;72209;-80
2023/10/04 06:52:49;;;;;;;28.50;9.00;;;;;;;23.53;33.31;101494.55;106150;1288;72715;-81
2023/10/04 06:55:15;;;;;;;24.30;8.10;;;;;;;23.52;33.51;101496.57;105549;1289;61228;-80
2023/10/04 06:57:41;;;;;;;22.00;8.30;;;;;;;23.53;33.69;101500.06;104924;1288;59878;-80
2023/10/04 07:00:14;;;;;;;28.00;8.30;;;;;;;23.54;33.83;101499.29;104533;1288;60208;-79
2023/10/04 07:03:01;;;;;;;26.20;8.40;;;;;;;23.55;33.88;101494.91;104614;1288;72764;-78
2023/10/04 07:05:37;;;;;;;17.90;7.80;;;;;;;23.55;34.06;101498.91;104779;1288;60408;-79
2023/10/04 07:08:04;;;;;;;16.70;7.60;;;;;;;23.56;34.12;101500.43;104814;1286;60062;-79
2023/10/04 07:10:30;;;;;;;23.50;8.10;;;;;;;23.59;34.11;101500.42;104539;1289;72125;-79
2023/10/04 07:12:57;;;;;;;18.40;8.20;;;;;;;23.60;34.17;101497.11;104718;1293;60485;-80
2023/10/04 07:15:27;;;;;;;18.10;8.50;;;;;;;23.58;34.06;101493.25;104977;1288;60629;-79
2023/10/04 07:17:53;;;;;;;22.80;8.00;;;;;;;23.60;34.04;101492.60;104645;1286;60636;-79
2023/10/04 07:20:19;;;;;;;20.60;8.50;;;;;;;23.62;34.00;101493.40;104030;1293;60484;-79
2023/10/04 07:23:00;;;;;;;19.50;8.00;;;;;;;23.63;34.00;101493.12;104427;1288;60473;-79
2023/10/04 07:25:32;;;;;;;17.80;7.70;;;;;;;23.64;33.95;101495.93;104357;1291;60451;-79
2023/10/04 07:28:02;;;;;;;22.70;7.80;;;;;;;23.65;33.94;101494.60;104660;1287;60663;-79
2023/10/04 07:30:29;;;;;;;21.10;8.10;;;;;;;23.66;33.82;101492.00;105046;1288;72567;-81
2023/10/04 07:32:54;;;;;;;19.40;8.10;;;;;;;23.67;33.91;101491.73;104629;1291;60361;-80
2023/10/04 07:35:23;;;;;;;17.00;8.20;;;;;;;23.69;34.09;101495.37;104545;1288;60649;-80
2023/10/04 07:37:48;;;;;;;21.70;7.80;;;;;;;23.71;34.10;101495.41;105049;1288;61147;-81
2023/10/04 07:40:16;;;;;;;21.90;8.30;;;;;;;23.71;34.18;101491.10;105027;1288;60918;-81
2023/10/04 07:42:45;;;;;;;19.60;8.70;;;;;;;23.73;34.08;101483.80;106190;1287;73716;-81
2023/10/04 07:45:12;;;;;;;21.50;8.20;;;;;;;23.74;34.22;101479.59;106211;1288;60077;-81
2023/10/04 07:47:41;;;;;;;18.30;7.90;;;;;;;23.75;34.28;101475.52;106182;1286;60363;-81
2023/10/04 07:50:10;;;;;;;21.00;8.10;;;;;;;23.76;34.22;101474.35;106078;1288;72682;-80
2023/10/04 07:52:38;;;;;;;22.20;8.40;;;;;;;23.79;34.10;101474.40;106072;1288;73338;-82
2023/10/04 07:55:05;;;;;;;24.10;8.40;;;;;;;23.80;34.14;101474.67;106109;1288;59396;-81
2023/10/04 07:57:31;;;;;;;27.00;8.40;;;;;;;23.77;34.16;101472.33;105972;1287;61442;-80
2023/10/04 07:59:57;;;;;;;35.50;9.50;;;;;;;23.78;34.48;101469.98;106068;1286;58069;-80
2023/10/04 08:02:23;;;;;;;22.00;8.80;;;;;;;23.81;34.68;101472.65;106100;1288;58811;-81
2023/10/04 08:04:49;;;;;;;27.60;8.40;;;;;;;23.83;34.76;101469.77;106105;1288;58145;-81
2023/10/04 08:07:18;;;;;;;32.40;7.70;;;;;;;23.84;34.92;101475.44;106072;1287;59360;-81
2023/10/04 08:09:44;;;;;;;27.20;8.40;;;;;;;23.87;35.07;101477.55;106091;1288;72389;-79
2023/10/04 08:12:09;;;;;;;24.40;8.60;;;;;;;23.90;35.10;101477.91;106057;1288;58663;-79
2023/10/04 08:14:37;;;;;;;19.60;8.50;;;;;;;23.91;34.97;101477.08;106115;1288;60177;-79
2023/10/04 08:17:04;;;;;;;21.60;8.00;;;;;;;23.93;34.84;101472.14;105289;1291;60486;-80
2023/10/04 08:19:29;;;;;;;25.70;7.90;;;;;;;23.91;34.61;101472.08;104893;1290;60515;-81
2023/10/04 08:21:55;;;;;;;29.30;8.20;;;;;;;23.92;34.46;101475.25;105046;1288;60489;-80
2023/10/04 08:24:21;;;;;;;33.80;8.20;;;;;;;23.95;34.93;101474.88;104886;1288;60697;-79
2023/10/04 08:26:50;;;;;;;21.00;8.10;;;;;;;23.98;35.36;101477.52;105143;1287;60575;-81
2023/10/04 08:29:15;;;;;;;18.60;8.00;;;;;;;24.01;35.54;101477.45;105266;1288;58542;-79
2023/10/04 08:31:41;;;;;;;18.70;7.50;;;;;;;24.02;35.25;101470.94;105218;1288;60487;-81
2023/10/04 08:34:07;;;;;;;15.80;7.20;;;;;;;24.02;34.87;101465.55;105105;1288;60487;-80
2023/10/04 08:36:33;;;;;;;17.30;7.80;;;;;;;24.01;34.69;101462.75;105179;1288;59586;-81
2023/10/04 08:39:01;;;;;;;17.90;7.20;;;;;;;24.02;34.42;101463.95;105302;1287;58836;-81
2023/10/04 08:41:27;;;;;;;21.50;7.30;;;;;;;24.03;34.44;101463.83;105233;1292;60707;-81
2023/10/04 08:43:53;;;;;;;13.40;7.20;;;;;;;24.04;34.44;101458.56;105458;1288;60551;-79
2023/10/04 08:46:20;;;;;;;20.90;7.60;;;;;;;24.04;34.42;101460.18;105372;1288;59354;-80
2023/10/04 08:48:53;;;;;;;23.60;7.10;;;;;;;24.02;34.28;101463.22;105529;1288;58207;-80
2023/10/04 08:51:53;;;;;;;20.20;7.30;;;;;;;24.00;34.10;101460.85;105390;1288;73726;-80
2023/10/04 08:54:22;;;;;;;36.80;7.30;;;;;;;23.98;34.18;101455.45;105838;1288;59910;-80
2023/10/04 08:57:05;;;;;;;39.50;7.50;;;;;;;23.99;34.50;101457.12;105676;1288;59892;-81
2023/10/04 08:59:32;;;;;;;32.00;7.40;;;;;;;24.06;34.85;101455.35;105900;1291;71454;-79
2023/10/04 09:01:58;;;;;;;35.80;7.50;;;;;;;24.09;34.84;101452.79;105817;1288;73604;-81
2023/10/04 09:04:24;;;;;;;25.80;7.20;;;;;;;24.09;35.00;101448.87;105973;1287;58294;-81
2023/10/04 09:06:51;;;;;;;37.40;7.50;;;;;;;24.11;35.11;101445.44;105950;1288;58707;-81
2023/10/04 09:09:18;;;;;;;36.40;7.70;;;;;;;24.11;35.08;101444.36;105885;1287;72678;-80
2023/10/04 09:11:45;;;;;;;22.90;7.10;;;;;;;24.12;35.04;101446.15;105901;1288;58601;-81
2023/10/04 09:14:16;;;;;;;21.10;6.60;;;;;;;24.12;34.92;101447.05;105946;1287;62540;-81
2023/10/04 09:16:42;;;;;;;20.10;7.10;;;;;;;24.13;35.07;101444.64;105853;1288;60295;-81
2023/10/04 09:19:18;;;;;;;35.50;7.50;;;;;;;24.12;35.10;101439.78;105971;1288;72273;-80
2023/10/04 09:21:44;;;;;;;27.30;7.40;;;;;;;24.15;35.34;101438.55;106058;1287;73722;-81
2023/10/04 09:24:11;;;;;;;19.00;6.90;;;;;;;24.17;35.50;101440.00;106028;1288;58954;-81
2023/10/04 09:26:54;;;;;;;26.20;7.00;;;;;;;24.19;35.65;101435.55;106081;1288;61477;-80
2023/10/04 09:29:30;;;;;;;22.30;7.00;;;;;;;24.22;35.84;101434.95;106043;1288;73943;-80
2023/10/04 09:31:56;;;;;;;20.10;6.60;;;;;;;24.23;35.68;101430.89;106040;1287;73563;-81
2023/10/04 09:34:25;;;;;;;20.10;7.20;;;;;;;24.23;35.57;101434.50;106088;1287;58339;-82
2023/10/04 09:36:54;;;;;;;16.70;6.70;;;;;;;24.21;35.40;101426.39;106059;1287;60055;-80
2023/10/04 09:39:24;;;;;;;20.80;6.90;;;;;;;24.18;35.22;101424.45;105797;1288;71113;-81
2023/10/04 09:41:50;;;;;;;18.30;6.60;;;;;;;24.17;35.24;101425.06;106136;1287;73783;-81
2023/10/04 09:44:26;;;;;;;20.10;6.50;;;;;;;24.18;35.15;101421.58;105934;1287;60498;-80
2023/10/04 09:47:02;;;;;;;16.10;6.30;;;;;;;24.16;34.91;101417.39;104863;1289;60483;-81
2023/10/04 09:49:31;;;;;;;18.10;6.40;;;;;;;24.16;34.75;101416.65;104823;1287;72825;-81
2023/10/04 09:51:57;;;;;;;25.20;7.70;;;;;;;24.18;34.74;101419.60;104933;1288;73607;-81
2023/10/04 09:54:23;;;;;;;27.30;7.00;;;;;;;24.20;34.82;101423.96;104922;1288;59148;-79
2023/10/04 09:56:51;;;;;;;22.40;7.10;;;;;;;24.23;34.95;101421.02;104903;1290;60957;-80
2023/10/04 09:59:19;;;;;;;21.80;7.20;;;;;;;24.24;34.90;101418.21;105193;1287;72375;-81
2023/10/04 10:01:55;;;;;;;21.40;6.30;;;;;;;24.26;34.95;101419.54;104825;1288;73786;-82
2023/10/04 10:04:28;;;;;;;22.20;7.00;;;;;;;24.26;35.06;101417.38;104630;1291;60530;-81
2023/10/04 10:07:17;;;;;;;23.50;7.20;;;;;;;24.29;35.02;101418.20;105113;1288;60472;-80
2023/10/04 10:10:16;;;;;;;20.80;6.60;;;;;;;24.32;34.89;101416.02;105116;1287;64551;-82
2023/10/04 10:12:43;;;;;;;21.90;7.20;;;;;;;24.31;34.79;101411.39;105048;1288;65218;-81
2023/10/04 10:15:11;;;;;;;18.50;6.50;;;;;;;24.31;34.71;101407.84;105018;1288;60480;-80
2023/10/04 10:17:37;;;;;;;22.10;7.00;;;;;;;24.30;34.68;101405.21;104703;1288;61747;-80
2023/10/04 10:20:04;;;;;;;18.70;6.80;;;;;;;24.28;34.56;101406.80;104616;1288;60581;-81
2023/10/04 10:22:29;;;;;;;14.80;6.80;;;;;;;24.29;34.76;101407.80;104716;1288;61463;-79
2023/10/04 10:24:59;;;;;;;18.60;6.50;;;;;;;24.33;35.02;101403.91;104520;1287;61034;-80
2023/10/04 10:27:27;;;;;;;24.80;6.40;;;;;;;24.33;34.87;101397.93;104414;1292;60560;-79
2023/10/04 10:29:52;;;;;;;19.70;6.50;;;;;;;24.34;34.96;101393.95;104487;1287;72444;-80
2023/10/04 10:32:22;;;;;;;19.70;7.00;;;;;;;24.35;35.13;101395.62;104782;1288;59467;-83
2023/10/04 10:35:00;;;;;;;15.10;6.20;;;;;;;24.36;35.06;101391.81;104808;1293;60438;-80
2023/10/04 10:37:26;;;;;;;17.30;6.80;;;;;;;24.36;35.14;101386.59;104486;1288;60669;-81
2023/10/04 10:39:52;;;;;;;17.70;6.80;;;;;;;24.37;35.28;101387.58;104894;1288;59251;-81
2023/10/04 10:42:19;;;;;;;17.00;6.60;;;;;;;24.37;35.19;101383.97;104901;1287;61124;-81
2023/10/04 10:44:45;;;;;;;21.50;7.30;;;;;;;24.39;35.22;101379.84;104895;1288;59343;-81
2023/10/04 10:47:25;;;;;;;14.30;6.70;;;;;;;24.40;35.07;101372.55;104678;1288;60585;-81
2023/10/04 10:49:58;;;;;;;23.50;6.30;;;;;;;24.42;35.07;101370.65;104709;1292;71705;-81
2023/10/04 10:52:38;;;;;;;19.90;6.80;;;;;;;24.43;35.06;101368.01;104906;1288;73408;-80
2023/10/04 10:55:14;;;;;;;16.60;6.50;;;;;;;24.44;35.02;101362.95;104936;1288;60851;-80
2023/10/04 10:57:42;;;;;;;20.00;6.90;;;;;;;24.42;34.66;101365.77;104820;1286;60519;-80
2023/10/04 11:02:42;;;;;;;22.10;6.80;;;;;;;24.43;34.80;101360.61;105991;1287;73656;-82
2023/10/04 11:05:09;;;;;;;14.40;6.10;;;;;;;24.46;34.82;101357.19;105787;1286;60132;-81
2023/10/04 11:07:36;;;;;;;21.80;7.20;;;;;;;24.50;34.82;101355.28;105962;1288;58107;-80
2023/10/04 11:10:03;;;;;;;21.00;7.00;;;;;;;24.50;34.88;101355.27;105918;1287;59535;-82
2023/10/04 11:12:33;;;;;;;22.90;6.20;;;;;;;24.50;34.90;101356.00;105709;1288;66238;-81
2023/10/04 11:15:00;;;;;;;26.90;7.10;;;;;;;24.51;34.99;101351.81;106070;1286;59155;-80
2023/10/04 11:17:26;;;;;;;27.00;7.30;;;;;;;24.52;35.16;101358.38;105910;1288;60005;-81